createdAt,value
2022-12-18T00:01:49.375Z,-5.51
2022-12-18T00:05:11.531Z,-5.45
2022-12-18T00:09:09.366Z,-5.44
2022-12-18T00:12:50.437Z,-5.42
2022-12-18T00:16:16.748Z,-5.44
2022-12-18T00:19:50.054Z,-5.46
2022-12-18T00:23:28.720Z,-5.51
2022-12-18T00:27:05.274Z,-5.53
2022-12-18T00:30:43.102Z,-5.50
2022-12-18T00:34:20.609Z,-5.46
2022-12-18T00:38:17.568Z,-5.44
2022-12-18T00:41:58.445Z,-5.45
2022-12-18T00:45:26.210Z,-5.47
2022-12-18T00:48:59.720Z,-5.48
2022-12-18T00:52:45.987Z,-5.47
2022-12-18T00:56:14.766Z,-5.43
2022-12-18T00:59:55.552Z,-5.40
2022-12-18T01:03:30.193Z,-5.39
2022-12-18T01:07:08.155Z,-5.39
2022-12-18T01:10:45.505Z,-5.42
2022-12-18T01:14:23.451Z,-5.46
2022-12-18T01:18:19.845Z,-5.48
2022-12-18T01:21:42.332Z,-5.47
2022-12-18T01:25:38.978Z,-5.41
2022-12-18T01:29:20.111Z,-5.35
2022-12-18T01:32:42.232Z,-5.32
2022-12-18T01:36:26.596Z,-5.32
2022-12-18T01:40:16.505Z,-5.31
2022-12-18T01:43:50.304Z,-5.34
2022-12-18T01:47:40.364Z,-5.37
2022-12-18T01:51:23.212Z,-5.36
2022-12-18T01:54:46.332Z,-5.32
2022-12-18T01:58:31.799Z,-5.25
2022-12-18T02:02:21.627Z,-5.22
2022-12-18T02:05:50.175Z,-5.19
2022-12-18T02:09:34.318Z,-5.19
2022-12-18T02:14:08.138Z,-5.24
2022-12-18T02:17:57.661Z,-5.28
2022-12-18T02:21:43.407Z,-5.28
2022-12-18T02:25:47.886Z,-5.23
2022-12-18T02:29:19.704Z,-5.19
2022-12-18T02:33:11.353Z,-5.16
2022-12-18T02:36:55.071Z,-5.16
2022-12-18T02:40:19.997Z,-5.20
2022-12-18T02:44:15.074Z,-5.24
2022-12-18T02:47:41.725Z,-5.27
2022-12-18T02:51:31.074Z,-5.31
2022-12-18T02:55:29.040Z,-5.34
2022-12-18T02:59:22.490Z,-5.32
2022-12-18T03:03:03.365Z,-5.30
2022-12-18T03:06:50.574Z,-5.29
2022-12-18T03:10:17.872Z,-5.30
2022-12-18T03:14:11.070Z,-5.34
2022-12-18T03:17:59.670Z,-5.38
2022-12-18T03:21:29.331Z,-5.40
2022-12-18T03:25:19.694Z,-5.39
2022-12-18T03:28:48.297Z,-5.36
2022-12-18T03:32:34.472Z,-5.30
2022-12-18T03:35:59.585Z,-5.31
2022-12-18T03:39:37.596Z,-5.33
2022-12-18T03:44:03.911Z,-5.36
2022-12-18T03:48:06.865Z,-5.37
2022-12-18T03:51:43.358Z,-5.42
2022-12-18T03:55:34.088Z,-5.44
2022-12-18T03:59:19.381Z,-5.44
2022-12-18T04:03:04.202Z,-5.37
2022-12-18T04:06:51.312Z,-5.33
2022-12-18T04:10:32.696Z,-5.31
2022-12-18T04:14:17.860Z,-5.32
2022-12-18T04:17:48.818Z,-5.38
2022-12-18T04:21:18.409Z,-5.46
2022-12-18T04:25:15.121Z,-5.45
2022-12-18T04:28:48.851Z,-5.43
2022-12-18T04:32:50.494Z,-5.38
2022-12-18T04:36:34.185Z,-5.37
2022-12-18T04:39:56.625Z,-5.40
2022-12-18T04:43:34.362Z,-5.44
2022-12-18T04:47:31.376Z,-5.51
2022-12-18T04:50:53.914Z,-5.54
2022-12-18T04:54:31.484Z,-5.57
2022-12-18T04:58:09.586Z,-5.57
2022-12-18T05:02:06.105Z,-5.53
2022-12-18T05:05:29.018Z,-5.48
2022-12-18T05:09:09.944Z,-5.52
2022-12-18T05:13:05.560Z,-5.58
2022-12-18T05:16:28.077Z,-5.63
2022-12-18T05:20:06.147Z,-5.67
2022-12-18T05:23:43.718Z,-5.73
2022-12-18T05:27:21.740Z,-5.74
2022-12-18T05:31:18.043Z,-5.73
2022-12-18T05:34:41.484Z,-5.69
2022-12-18T05:38:19.028Z,-5.70
2022-12-18T05:42:15.007Z,-5.67
2022-12-18T05:45:41.713Z,-5.66
2022-12-18T05:49:33.826Z,-5.72
2022-12-18T05:52:56.384Z,-5.78
2022-12-18T05:56:52.990Z,-5.86
2022-12-18T06:00:16.761Z,-5.87
2022-12-18T06:04:12.534Z,-5.83
2022-12-18T06:07:53.733Z,-5.75
2022-12-18T06:11:22.407Z,-5.74
2022-12-18T06:14:53.849Z,-5.76
2022-12-18T06:18:50.454Z,-5.76
2022-12-18T06:22:13.228Z,-5.78
2022-12-18T06:26:13.784Z,-5.83
2022-12-18T06:29:36.295Z,-5.90
2022-12-18T06:33:34.902Z,-5.88
2022-12-18T06:37:16.403Z,-5.83
2022-12-18T06:40:58.443Z,-5.76
2022-12-18T06:44:21.503Z,-5.67
2022-12-18T06:48:21.397Z,-5.63
2022-12-18T06:52:03.212Z,-5.62
2022-12-18T06:55:26.823Z,-5.60
2022-12-18T06:59:03.678Z,-5.60
2022-12-18T07:02:41.645Z,-5.62
2022-12-18T07:06:37.648Z,-5.62
2022-12-18T07:10:19.168Z,-5.64
2022-12-18T07:13:42.679Z,-5.70
2022-12-18T07:17:38.432Z,-5.75
2022-12-18T07:21:05.705Z,-5.77
2022-12-18T07:24:38.790Z,-5.76
2022-12-18T07:28:17.608Z,-5.71
2022-12-18T07:31:54.593Z,-5.66
2022-12-18T07:35:31.614Z,-5.62
2022-12-18T07:39:09.418Z,-5.60
2022-12-18T07:43:05.923Z,-5.57
2022-12-18T07:46:47.928Z,-5.55
2022-12-18T07:50:29.273Z,-5.56
2022-12-18T07:53:53.556Z,-5.53
2022-12-18T08:01:13.039Z,-5.44
2022-12-18T08:04:50.504Z,-5.38
2022-12-18T08:08:32.549Z,-5.31
2022-12-18T08:12:06.046Z,-5.26
2022-12-18T08:16:05.544Z,-5.27
2022-12-18T08:19:27.438Z,-5.27
2022-12-18T08:23:05.180Z,-5.27
2022-12-18T08:26:51.856Z,-5.27
2022-12-18T08:30:25.206Z,-5.22
2022-12-18T08:34:01.323Z,-5.13
2022-12-18T08:37:39.186Z,-5.10
2022-12-18T08:41:18.064Z,-5.15
2022-12-18T08:44:54.630Z,-5.21
2022-12-18T08:48:52.242Z,-5.12
2022-12-18T08:52:15.448Z,-5.16
2022-12-18T08:56:11.185Z,-5.19
2022-12-18T08:59:52.426Z,-5.11
2022-12-18T09:03:16.220Z,-5.03
2022-12-18T09:06:52.401Z,-5.01
2022-12-18T09:10:30.765Z,-5.02
2022-12-18T09:14:07.833Z,-5.01
2022-12-18T09:17:45.175Z,-5.05
2022-12-18T09:21:23.226Z,-5.09
2022-12-18T09:25:08.886Z,-5.16
2022-12-18T09:28:38.720Z,-5.15
2022-12-18T09:32:22.008Z,-5.09
2022-12-18T09:35:53.886Z,-4.93
2022-12-18T09:39:31.240Z,-4.66
2022-12-18T09:43:19.770Z,-4.46
2022-12-18T09:47:25.013Z,-4.35
2022-12-18T09:50:50.032Z,-4.34
2022-12-18T09:54:36.910Z,-4.40
2022-12-18T09:58:25.528Z,-4.40
2022-12-18T10:01:48.685Z,-4.38
2022-12-18T10:05:41.197Z,-4.38
2022-12-18T10:09:28.637Z,-4.31
2022-12-18T10:13:05.885Z,-4.16
2022-12-18T10:16:44.969Z,-4.01
2022-12-18T10:20:24.764Z,-4.05
2022-12-18T10:24:02.115Z,-4.02
2022-12-18T10:27:27.402Z,-4.10
2022-12-18T10:31:05.892Z,-4.05
2022-12-18T10:34:40.801Z,-3.95
2022-12-18T10:38:18.146Z,-3.91
2022-12-18T10:42:20.726Z,-3.95
2022-12-18T10:46:03.091Z,-3.90
2022-12-18T10:49:32.335Z,-3.94
2022-12-18T10:53:05.557Z,-3.88
2022-12-18T10:56:41.995Z,-3.87
2022-12-18T11:00:31.656Z,-3.86
2022-12-18T11:04:35.551Z,-3.85
2022-12-18T11:07:59.881Z,-3.77
2022-12-18T11:12:00.440Z,-3.74
2022-12-18T11:15:30.699Z,-3.62
2022-12-18T11:19:28.969Z,-3.38
2022-12-18T11:23:00.623Z,-3.16
2022-12-18T11:26:47.905Z,-3.18
2022-12-18T11:30:37.111Z,-3.04
2022-12-18T11:34:31.425Z,-2.82
2022-12-18T11:38:03.983Z,-2.78
2022-12-18T11:41:58.544Z,-2.82
2022-12-18T11:45:28.620Z,-2.87
2022-12-18T11:49:18.568Z,-2.82
2022-12-18T11:52:42.808Z,-2.71
2022-12-18T11:56:31.884Z,-2.60
2022-12-18T12:00:19.420Z,-2.38
2022-12-18T12:03:56.668Z,-1.65
2022-12-18T12:07:46.830Z,-0.79
2022-12-18T12:11:53.621Z,0.17
2022-12-18T12:15:40.326Z,1.68
2022-12-18T12:19:24.044Z,3.87
2022-12-18T12:22:58.456Z,5.66
2022-12-18T12:26:50.511Z,7.09
2022-12-18T12:30:21.050Z,8.06
2022-12-18T12:34:00.972Z,8.69
2022-12-18T12:38:09.068Z,9.41
2022-12-18T12:42:17.852Z,10.51
2022-12-18T12:45:56.829Z,11.32
2022-12-18T12:49:23.706Z,11.89
2022-12-18T12:52:58.357Z,12.03
2022-12-18T12:56:45.835Z,11.28
2022-12-18T13:00:17.527Z,10.54
2022-12-18T13:04:08.210Z,10.91
2022-12-18T13:08:02.799Z,11.11
2022-12-18T13:12:04.223Z,10.63
2022-12-18T13:19:36.945Z,7.13
2022-12-18T13:22:59.374Z,5.90
2022-12-18T13:26:37.118Z,5.17
2022-12-18T13:30:46.812Z,5.30
2022-12-18T13:34:31.468Z,5.60
2022-12-18T13:38:35.729Z,5.80
2022-12-18T13:42:07.374Z,6.08
2022-12-18T13:45:59.498Z,6.00
2022-12-18T13:49:44.218Z,5.02
2022-12-18T13:53:30.112Z,3.66
2022-12-18T13:56:52.546Z,2.54
2022-12-18T14:00:30.885Z,1.56
2022-12-18T14:04:29.599Z,0.77
2022-12-18T14:08:14.400Z,0.07
2022-12-18T14:11:36.942Z,-0.70
2022-12-18T14:15:26.701Z,-1.45
2022-12-18T14:19:02.738Z,-2.11
2022-12-18T14:22:34.470Z,-2.74
2022-12-18T14:26:29.832Z,-3.31
2022-12-18T14:30:23.999Z,-3.83
2022-12-18T14:33:46.151Z,-4.28
2022-12-18T14:37:26.808Z,-4.67
2022-12-18T14:41:02.776Z,-5.07
2022-12-18T14:45:55.375Z,-5.39
2022-12-18T14:49:35.213Z,-5.90
2022-12-18T14:52:58.333Z,-6.21
2022-12-18T14:57:22.509Z,-6.47
2022-12-18T15:01:03.393Z,-6.72
2022-12-18T15:04:38.269Z,-6.86
2022-12-18T15:08:29.925Z,-7.00
2022-12-18T15:12:01.273Z,-7.20
2022-12-18T15:15:40.502Z,-7.48
2022-12-18T15:19:09.025Z,-7.72
2022-12-18T15:22:48.644Z,-7.95
2022-12-18T15:26:23.408Z,-8.13
2022-12-18T15:30:09.862Z,-8.25
2022-12-18T15:33:59.274Z,-8.37
2022-12-18T15:37:21.387Z,-8.48
2022-12-18T15:40:59.730Z,-8.58
2022-12-18T15:44:55.935Z,-8.71
2022-12-18T15:48:43.006Z,-8.88
2022-12-18T15:52:05.213Z,-9.01
2022-12-18T15:56:01.811Z,-9.04
2022-12-18T15:59:24.866Z,-9.13
2022-12-18T16:03:03.669Z,-9.26
2022-12-18T16:07:12.795Z,-9.40
2022-12-18T16:10:25.012Z,-9.52
2022-12-18T16:14:01.014Z,-9.68
2022-12-18T16:17:39.041Z,-9.82
2022-12-18T16:21:16.463Z,-9.97
2022-12-18T16:25:25.189Z,-10.06
2022-12-18T16:29:10.368Z,-10.13
2022-12-18T16:32:35.501Z,-10.23
2022-12-18T16:36:10.303Z,-10.32
2022-12-18T16:39:48.175Z,-10.36
2022-12-18T16:43:25.785Z,-10.31
2022-12-18T16:47:03.996Z,-10.22
2022-12-18T16:50:40.756Z,-10.16
2022-12-18T16:54:19.710Z,-10.14
2022-12-18T16:58:15.223Z,-10.12
2022-12-18T17:01:37.492Z,-10.03
2022-12-18T17:05:14.883Z,-9.96
2022-12-18T17:09:01.413Z,-9.88
2022-12-18T17:12:50.610Z,-9.85
2022-12-18T17:16:31.922Z,-9.80
2022-12-18T17:19:54.943Z,-9.75
2022-12-18T17:23:51.944Z,-9.72
2022-12-18T17:27:15.191Z,-9.72
2022-12-18T17:30:53.408Z,-9.75
2022-12-18T17:34:29.749Z,-9.73
2022-12-18T17:38:07.444Z,-9.73
2022-12-18T17:41:44.821Z,-9.76
2022-12-18T17:45:22.867Z,-9.81
2022-12-18T17:49:01.786Z,-9.88
2022-12-18T17:52:38.177Z,-9.94
2022-12-18T17:56:19.192Z,-9.98
2022-12-18T17:59:54.590Z,-10.03
2022-12-18T18:03:33.194Z,-10.11
2022-12-18T18:07:27.679Z,-10.16
2022-12-18T18:10:51.454Z,-10.19
2022-12-18T18:14:27.945Z,-10.19
2022-12-18T18:18:24.579Z,-10.18
2022-12-18T18:21:49.739Z,-10.16
2022-12-18T18:25:24.383Z,-10.13
2022-12-18T18:29:04.851Z,-10.10
2022-12-18T18:32:40.104Z,-10.04
2022-12-18T18:36:17.465Z,-10.00
2022-12-18T18:39:56.921Z,-9.96
2022-12-18T18:43:32.921Z,-9.89
2022-12-18T18:47:10.576Z,-9.80
2022-12-18T18:51:06.455Z,-9.75
2022-12-18T18:54:31.134Z,-9.71
2022-12-18T18:58:26.791Z,-9.69
2022-12-18T19:01:49.106Z,-9.67
2022-12-18T19:05:27.800Z,-9.66
2022-12-18T19:09:06.743Z,-9.63
2022-12-18T19:13:00.822Z,-9.58
2022-12-18T19:16:44.676Z,-9.54
2022-12-18T19:20:27.754Z,-9.51
2022-12-18T19:23:50.969Z,-9.48
2022-12-18T19:27:27.717Z,-9.43
2022-12-18T19:31:28.054Z,-9.36
2022-12-18T19:34:53.948Z,-9.28
2022-12-18T19:38:31.134Z,-9.25
2022-12-18T19:42:09.231Z,-9.22
2022-12-18T19:45:46.441Z,-9.17
2022-12-18T19:49:26.093Z,-9.10
2022-12-18T19:53:20.711Z,-9.04
2022-12-18T19:56:43.434Z,-8.98
2022-12-18T20:00:39.482Z,-8.98
2022-12-18T20:04:01.787Z,-8.97
2022-12-18T20:07:39.446Z,-8.95
2022-12-18T20:11:17.168Z,-8.95
2022-12-18T20:14:54.301Z,-8.93
2022-12-18T20:18:33.187Z,-8.97
2022-12-18T20:22:10.024Z,-9.03
2022-12-18T20:25:47.344Z,-9.07
2022-12-18T20:29:25.065Z,-9.12
2022-12-18T20:33:02.847Z,-9.17
2022-12-18T20:36:40.971Z,-9.23
2022-12-18T20:40:23.299Z,-9.29
2022-12-18T20:43:55.744Z,-9.37
2022-12-18T20:47:55.488Z,-9.45
2022-12-18T20:51:36.680Z,-9.49
2022-12-18T20:54:58.904Z,-9.47
2022-12-18T20:58:37.326Z,-9.47
2022-12-18T21:02:33.896Z,-9.49
2022-12-18T21:05:56.087Z,-9.51
2022-12-18T21:09:37.558Z,-9.57
2022-12-18T21:13:11.380Z,-9.62
2022-12-18T21:17:08.566Z,-9.67
2022-12-18T21:20:30.405Z,-9.78
2022-12-18T21:24:09.891Z,-9.81
2022-12-18T21:27:45.610Z,-9.86
2022-12-18T21:31:25.794Z,-9.90
2022-12-18T21:35:01.322Z,-9.93
2022-12-18T21:38:38.932Z,-9.97
2022-12-18T21:42:54.155Z,-10.05
2022-12-18T21:46:17.844Z,-10.16
2022-12-18T21:49:54.438Z,-10.19
2022-12-18T21:53:51.129Z,-10.18
2022-12-18T21:57:32.448Z,-10.17
2022-12-18T22:00:55.622Z,-10.15
2022-12-18T22:04:32.772Z,-10.16
2022-12-18T22:08:29.250Z,-10.20
2022-12-18T22:11:52.555Z,-10.27
2022-12-18T22:15:29.552Z,-10.32
2022-12-18T22:19:10.361Z,-10.43
2022-12-18T22:22:45.173Z,-10.60
2022-12-18T22:26:24.016Z,-10.66
2022-12-18T22:30:05.585Z,-10.66
2022-12-18T22:33:37.676Z,-10.73
2022-12-18T22:37:15.360Z,-10.79
2022-12-18T22:41:11.772Z,-10.82
2022-12-18T22:44:34.271Z,-10.81
2022-12-18T22:48:11.747Z,-10.80
2022-12-18T22:51:50.521Z,-10.82
2022-12-18T22:55:45.945Z,-10.79
2022-12-18T22:59:09.639Z,-10.81
2022-12-18T23:02:46.571Z,-10.84
2022-12-18T23:06:44.138Z,-10.85
2022-12-18T23:10:26.769Z,-10.86
2022-12-18T23:13:48.943Z,-10.86
2022-12-18T23:17:45.497Z,-10.83
2022-12-18T23:21:10.998Z,-10.80
2022-12-18T23:25:04.404Z,-10.83
2022-12-18T23:28:26.557Z,-10.83
2022-12-18T23:32:04.217Z,-10.84
2022-12-18T23:35:41.872Z,-10.81
2022-12-18T23:39:29.768Z,-10.79
2022-12-18T23:42:58.654Z,-10.84
2022-12-18T23:46:53.947Z,-10.87
2022-12-18T23:50:15.970Z,-10.88
2022-12-18T23:53:57.215Z,-10.88
2022-12-18T23:57:31.517Z,-10.91
